| time (UTC) | temp F | wind direction | speed MPH | gust MPH | rain 1hr in | rain 24hr in | rain mn in | humidity % | barometer mb |
| 20260901083031 | 77 | 117 | 0.0 | 0.0 | 0.00 | 1.03 | 0.00 | 65 | 1014.9 |
| 20260901081530 | 76 | 117 | 0.0 | 0.0 | 0.00 | 1.03 | 0.00 | 65 | 1014.9 |
| 20260901080037 | 77 | 117 | 0.0 | 0.0 | 0.00 | 1.03 | 0.00 | 65 | 1014.9 |
| 20260901074519 | 77 | 117 | 0.0 | 0.0 | 0.00 | 1.03 | 0.00 | 65 | 1015.0 |
| 20260901073032 | 77 | 117 | 0.0 | 0.0 | 0.00 | 1.03 | 0.00 | 66 | 1014.9 |
| 20260901071532 | 77 | 117 | 0.0 | 0.0 | 0.00 | 1.03 | 0.00 | 66 | 1015.2 |
| 20260901070015 | 77 | 117 | 0.0 | 0.0 | 0.00 | 1.03 | 0.00 | 66 | 1015.2 |
| 20260901064519 | 78 | 117 | 0.0 | 0.0 | 0.00 | 1.03 | 0.00 | 66 | 1015.2 |
| 20260901063032 | 78 | 117 | 0.0 | 0.0 | 0.00 | 1.03 | 0.00 | 66 | 1015.1 |
| 20260901061506 | 78 | 117 | 0.0 | 0.0 | 0.00 | 1.03 | 0.00 | 66 | 1015.2 |
| 20260901060006 | 78 | 117 | 0.0 | 0.0 | 0.00 | 1.03 | 0.00 | 66 | 1015.4 |
| 20260901054515 | 78 | 117 | 0.0 | 0.0 | 0.00 | 1.03 | 0.00 | 67 | 1015.3 |
| 20260901053024 | 78 | 117 | 0.0 | 0.0 | 0.00 | 1.03 | 0.00 | 68 | 1015.2 |
| 20260901051533 | 78 | 117 | 0.0 | 0.0 | 0.00 | 1.03 | 0.00 | 67 | 1015.2 |
| 20260901050007 | 78 | 117 | 0.0 | 0.0 | 0.00 | 1.03 | 0.00 | 68 | 1015.2 |
| 20260901044512 | 78 | 117 | 0.0 | 0.0 | 0.00 | 1.03 | 1.03 | 70 | 1015.1 |
| 20260901043029 | 78 | 117 | 0.0 | 0.0 | 0.00 | 1.03 | 1.03 | 70 | 1015.1 |
| 20260901041523 | 78 | 117 | 0.0 | 0.0 | 0.00 | 1.03 | 1.03 | 71 | 1015.2 |
| 20260901040030 | 78 | 117 | 0.0 | 0.0 | 0.00 | 1.03 | 1.03 | 72 | 1015.2 |
| 20260901034508 | 78 | 117 | 0.0 | 0.0 | 0.00 | 1.03 | 1.03 | 72 | 1015.1 |
| 20260901033017 | 78 | 117 | 0.0 | 0.0 | 0.00 | 1.03 | 1.03 | 73 | 1015.0 |
| 20260901031518 | 79 | 117 | 0.0 | 0.0 | 0.00 | 1.03 | 1.03 | 73 | 1015.1 |
| 20260901030023 | 78 | 117 | 0.0 | 0.0 | 0.00 | 1.03 | 1.03 | 73 | 1014.9 |
| 20260901024531 | 79 | 117 | 0.0 | 0.0 | 0.00 | 1.03 | 1.03 | 74 | 1014.5 |
| 20260901023008 | 79 | 117 | 0.0 | 0.0 | 0.00 | 1.03 | 1.03 | 75 | 1014.3 |
| 20260901021514 | 79 | 117 | 0.0 | 0.0 | 0.00 | 1.03 | 1.03 | 76 | 1014.1 |
| 20260901020023 | 79 | 117 | 0.0 | 0.0 | 0.00 | 1.03 | 1.03 | 76 | 1013.9 |
| 20260901014527 | 79 | 117 | 0.0 | 0.0 | 0.00 | 1.03 | 1.03 | 78 | 1013.9 |
| 20260901013034 | 80 | 117 | 0.0 | 0.0 | 0.00 | 1.03 | 1.03 | 78 | 1013.7 |
| 20260901011516 | 81 | 117 | 0.0 | 0.0 | 0.02 | 1.03 | 1.03 | 79 | 1013.9 |
| 20260901010017 | 81 | 117 | 0.0 | 0.0 | 0.02 | 1.03 | 1.03 | 80 | 1013.9 |
| 20260901004526 | 82 | 117 | 0.0 | 0.0 | 0.02 | 1.04 | 1.03 | 80 | 1013.8 |
| 20260901003035 | 82 | 117 | 0.0 | 0.0 | 0.02 | 1.04 | 1.03 | 81 | 1013.9 |
| 20260901001532 | 83 | 117 | 0.0 | 0.0 | 0.00 | 1.02 | 1.01 | 80 | 1014.0 |
| 20260901000014 | 83 | 117 | 0.0 | 0.0 | 0.00 | 1.02 | 1.01 | 80 | 1013.9 |
| 20260831234518 | 83 | 117 | 0.0 | 0.0 | 0.00 | 1.02 | 1.01 | 80 | 1014.0 |
| 20260831233025 | 83 | 117 | 0.0 | 0.0 | 0.00 | 1.02 | 1.01 | 79 | 1014.1 |
| 20260831231536 | 83 | 117 | 0.0 | 0.0 | 0.00 | 1.02 | 1.01 | 77 | 1014.2 |
| 20260831230036 | 83 | 117 | 0.0 | 0.0 | 0.00 | 1.02 | 1.01 | 72 | 1014.0 |
| 20260831224514 | 82 | 117 | 0.0 | 0.0 | 0.00 | 1.02 | 1.01 | 69 | 1014.1 |
| 20260831223021 | 82 | 117 | 0.0 | 0.0 | 0.00 | 1.02 | 1.01 | 67 | 1014.3 |
| 20260831221527 | 81 | 117 | 0.0 | 0.0 | 0.00 | 1.02 | 1.01 | 66 | 1014.2 |
| 20260831220028 | 80 | 117 | 0.0 | 0.0 | 0.00 | 1.02 | 1.01 | 67 | 1014.3 |
| 20260831214533 | 80 | 117 | 0.0 | 0.0 | 0.01 | 1.02 | 1.01 | 67 | 1014.4 |
| 20260831213018 | 79 | 117 | 0.0 | 0.0 | 0.73 | 1.02 | 1.01 | 68 | 1014.7 |
| 20260831211523 | 78 | 117 | 0.0 | 0.0 | 1.01 | 1.02 | 1.01 | 70 | 1015.0 |
| 20260831210033 | 78 | 117 | 0.0 | 0.0 | 1.01 | 1.02 | 1.01 | 73 | 1015.1 |
| 20260831204530 | 78 | 117 | 0.0 | 4.0 | 1.00 | 1.01 | 1.00 | 79 | 1015.6 |
| 20260831203035 | 85 | 56 | 3.0 | 10.0 | 0.28 | 0.29 | 0.28 | 74 | 1016.1 |
| 20260831201520 | 91 | 124 | 0.0 | 0.0 | 0.00 | 0.01 | 0.00 | 65 | 1015.4 |
| 20260831200030 | 89 | 133 | 0.0 | 0.0 | 0.00 | 0.01 | 0.00 | 69 | 1015.3 |
| 20260831194558 | 91 | 105 | 0.0 | 0.0 | 0.00 | 0.01 | 0.00 | 65 | 1015.8 |
| 20260831193033 | 91 | 342 | 0.0 | 0.0 | 0.00 | 0.01 | 0.00 | 61 | 1015.7 |
| 20260831191531 | 91 | 310 | 0.0 | 3.0 | 0.00 | 0.01 | 0.00 | 65 | 1015.9 |
| 20260831190024 | 90 | 319 | 0.0 | 4.0 | 0.00 | 0.01 | 0.00 | 67 | 1016.1 |
| 20260831184528 | 90 | 324 | 0.0 | 1.0 | 0.00 | 0.01 | 0.00 | 65 | 1016.2 |
| 20260831183030 | 91 | 25 | 0.0 | 0.0 | 0.00 | 0.01 | 0.00 | 65 | 1016.4 |
| 20260831181504 | 91 | 80 | 0.0 | 0.0 | 0.00 | 0.01 | 0.00 | 68 | 1016.5 |
| 20260831180003 | 90 | 135 | 0.0 | 0.0 | 0.00 | 0.01 | 0.00 | 70 | 1016.9 |
| 20260831174503 | 88 | 110 | 0.0 | 0.0 | 0.00 | 0.01 | 0.00 | 72 | 1016.8 |
| 20260831173004 | 88 | 105 | 0.0 | 0.0 | 0.00 | 0.01 | 0.00 | 74 | 1017.0 |
| 20260831171503 | 87 | 105 | 0.0 | 0.0 | 0.00 | 0.01 | 0.00 | 73 | 1017.1 |
| 20260831170004 | 88 | 33 | 0.0 | 0.0 | 0.00 | 0.01 | 0.00 | 72 | 1017.1 |
| 20260831164510 | 88 | 65 | 0.0 | 0.0 | 0.00 | 0.01 | 0.00 | 71 | 1017.1 |
| 20260831163002 | 88 | 221 | 0.0 | 0.0 | 0.00 | 0.01 | 0.00 | 70 | 1017.1 |
| 20260831161503 | 88 | 4 | 0.0 | 0.0 | 0.00 | 0.01 | 0.00 | 69 | 1017.3 |
| 20260831160006 | 89 | 15 | 0.0 | 0.0 | 0.00 | 0.01 | 0.00 | 69 | 1017.2 |
| 20260831154516 | 89 | 70 | 0.0 | 0.0 | 0.00 | 0.01 | 0.00 | 70 | 1017.1 |
| 20260831153010 | 88 | 262 | 0.0 | 0.0 | 0.00 | 0.01 | 0.00 | 72 | 1017.0 |
| 20260831151507 | 87 | 338 | 0.0 | 0.0 | 0.00 | 0.01 | 0.00 | 75 | 1017.1 |
| 20260831150006 | 86 | 289 | 0.0 | 1.0 | 0.00 | 0.01 | 0.00 | 78 | 1016.9 |
| 20260831144506 | 85 | 210 | 0.0 | 1.0 | 0.00 | 0.01 | 0.00 | 78 | 1016.8 |
| 20260831143007 | 85 | 80 | 0.0 | 1.0 | 0.00 | 0.01 | 0.00 | 79 | 1016.7 |
| 20260831141518 | 83 | 222 | 0.0 | 0.0 | 0.00 | 0.01 | 0.00 | 80 | 1016.8 |
| 20260831140007 | 83 | 338 | 0.0 | 2.0 | 0.00 | 0.01 | 0.00 | 80 | 1016.6 |
| 20260831134509 | 81 | 352 | 0.0 | 0.0 | 0.00 | 0.01 | 0.00 | 72 | 1016.5 |
| 20260831133009 | 79 | 109 | 0.0 | 0.0 | 0.00 | 0.01 | 0.00 | 64 | 1016.4 |
| 20260831131507 | 0 | 0.0 | 0.0 | 0.00 | 0.01 | 0.00 | 1016.2 | ||
| 20260831130007 | 0 | 0.0 | 0.0 | 0.00 | 0.01 | 0.00 | 1015.9 | ||
| 20260831124508 | 0 | 0.0 | 0.0 | 0.00 | 0.01 | 0.00 | 1015.7 | ||
| 20260831123010 | 0 | 0.0 | 0.0 | 0.00 | 0.01 | 0.00 | 1015.6 | ||
| 20260831121511 | 0 | 0.0 | 0.0 | 0.00 | 0.01 | 0.00 | 1015.4 | ||
| 20260831120013 | 0 | 0.0 | 0.0 | 0.00 | 0.01 | 0.00 | 1015.4 | ||
| 20260831114510 | 0 | 0.0 | 0.0 | 0.00 | 0.01 | 0.00 | 1015.1 | ||
| 20260831113014 | 0 | 0.0 | 0.0 | 0.00 | 0.01 | 0.00 | 1015.1 | ||
| 20260831111509 | 0 | 0.0 | 0.0 | 0.00 | 0.01 | 0.00 | 1015.0 | ||
| 20260831110017 | 0 | 0.0 | 0.0 | 0.00 | 0.01 | 0.00 | 1015.1 | ||
| 20260831104510 | 0 | 0.0 | 0.0 | 0.00 | 0.01 | 0.00 | 1015.1 | ||
| 20260831103013 | 0 | 0.0 | 0.0 | 0.00 | 0.01 | 0.00 | 1015.2 | ||
| 20260831101514 | 0 | 0.0 | 0.0 | 0.00 | 0.01 | 0.00 | 1015.1 | ||
| 20260831100013 | 0 | 0.0 | 0.0 | 0.00 | 0.01 | 0.00 | 1015.1 | ||
| 20260831094514 | 0 | 0.0 | 0.0 | 0.00 | 0.01 | 0.00 | 1015.2 | ||
| 20260831093016 | 0 | 0.0 | 0.0 | 0.00 | 0.01 | 0.00 | 1015.0 | ||
| 20260831091515 | 75 | 109 | 0.0 | 0.0 | 0.00 | 0.01 | 0.00 | 70 | 1014.9 |
| 20260831090014 | 75 | 109 | 0.0 | 0.0 | 0.00 | 0.01 | 0.00 | 70 | 1014.9 |
| 20260831084515 | 75 | 109 | 0.0 | 0.0 | 0.00 | 0.01 | 0.00 | 71 | 1015.0 |